Time;durP1;ratioP1;P1;durP2;ratioP2;P2;SDS_P1;SDS_P2;PMS_P1;PMS_P2;Temp;Humidity;BMP_temperature;BMP_pressure;BME280_temperature;BME280_humidity;BME280_pressure;Samples;Min_cycle;Max_cycle;Signal;HPM_P1;HPM_P2
2024/03/18 00:01:16;;;;;;;3.10;1.50;;;;;;;;;;5112589;28;20220;-84
2024/03/18 00:03:43;;;;;;;2.23;1.40;;;;;;;;;;5112544;28;20240;-84
2024/03/18 00:06:10;;;;;;;2.30;1.70;;;;;;;;;;5112501;28;20280;-84
2024/03/18 00:08:39;;;;;;;4.93;1.80;;;;;;;;;;5112558;28;20639;-84
2024/03/18 00:11:06;;;;;;;4.37;1.77;;;;;;;;;;5112416;28;20286;-85
2024/03/18 00:13:34;;;;;;;3.50;2.10;;;;;;;;;;5112428;28;20208;-84
2024/03/18 00:16:01;;;;;;;4.57;2.23;;;;;;;;;;5111854;28;20260;-85
2024/03/18 00:18:28;;;;;;;4.30;2.63;;;;;;;;;;5112675;28;20193;-85
2024/03/18 00:20:55;;;;;;;5.50;2.50;;;;;;;;;;5111750;28;20243;-84
2024/03/18 00:23:22;;;;;;;6.17;2.90;;;;;;;;;;5112290;28;20204;-84
2024/03/18 00:25:51;;;;;;;3.30;2.03;;;;;;;;;;5112340;28;20228;-84
2024/03/18 00:28:18;;;;;;;3.87;2.17;;;;;;;;;;5112019;28;20229;-84
2024/03/18 00:30:46;;;;;;;3.17;2.20;;;;;;;;;;5111900;28;20198;-85
2024/03/18 00:33:13;;;;;;;2.87;2.20;;;;;;;;;;5112064;28;20224;-84
2024/03/18 00:35:41;;;;;;;6.07;2.50;;;;;;;;;;5111981;28;20257;-84
2024/03/18 00:38:08;;;;;;;3.83;2.30;;;;;;;;;;5111963;28;20225;-85
2024/03/18 00:40:35;;;;;;;2.53;2.03;;;;;;;;;;5112047;28;20247;-84
2024/03/18 00:43:03;;;;;;;4.10;2.20;;;;;;;;;;5111844;28;20218;-85
2024/03/18 00:45:31;;;;;;;4.03;2.13;;;;;;;;;;5111634;28;20604;-85
2024/03/18 00:47:58;;;;;;;3.50;2.10;;;;;;;;;;5111949;28;20198;-83
2024/03/18 00:50:25;;;;;;;2.60;1.87;;;;;;;;;;5111189;28;20219;-85
2024/03/18 00:52:52;;;;;;;2.77;1.97;;;;;;;;;;5112278;28;20201;-84
2024/03/18 00:55:20;;;;;;;2.63;2.20;;;;;;;;;;5111418;28;20422;-84
2024/03/18 00:57:47;;;;;;;3.97;2.30;;;;;;;;;;5111837;28;20194;-84
2024/03/18 01:00:18;;;;;;;3.77;2.43;;;;;;;;;;5111719;28;20584;-85
2024/03/18 01:02:45;;;;;;;2.50;1.97;;;;;;;;;;5111799;28;20201;-84
2024/03/18 01:05:14;;;;;;;2.57;2.00;;;;;;;;;;5110993;28;20763;-84
2024/03/18 01:07:43;;;;;;;2.57;1.87;;;;;;;;;;5111769;28;20198;-84
2024/03/18 01:10:11;;;;;;;2.80;2.30;;;;;;;;;;5112202;28;20246;-85
2024/03/18 01:12:38;;;;;;;2.50;1.93;;;;;;;;;;5106879;28;20684;-85
2024/03/18 01:15:07;;;;;;;4.03;2.23;;;;;;;;;;5091202;28;20261;-83
2024/03/18 01:17:37;;;;;;;3.27;2.00;;;;;;;;;;5091338;28;20195;-84
2024/03/18 01:20:09;;;;;;;3.93;2.17;;;;;;;;;;5090681;28;20198;-85
2024/03/18 01:22:36;;;;;;;2.43;2.00;;;;;;;;;;5091451;28;20592;-85
2024/03/18 01:25:04;;;;;;;2.73;2.43;;;;;;;;;;5091077;28;20195;-84
2024/03/18 01:27:31;;;;;;;3.63;3.00;;;;;;;;;;5091584;28;20624;-85
2024/03/18 01:29:58;;;;;;;3.87;2.97;;;;;;;;;;5091631;28;20223;-84
2024/03/18 01:32:26;;;;;;;3.57;3.10;;;;;;;;;;5090905;28;20207;-85
2024/03/18 01:34:54;;;;;;;3.90;3.50;;;;;;;;;;5090810;28;20279;-84
2024/03/18 01:37:21;;;;;;;5.03;3.33;;;;;;;;;;5091361;28;20218;-84
2024/03/18 01:39:49;;;;;;;3.63;3.17;;;;;;;;;;5090921;28;20194;-83
2024/03/18 01:42:16;;;;;;;3.77;3.30;;;;;;;;;;5091030;28;20194;-84
2024/03/18 01:44:52;;;;;;;5.30;3.50;;;;;;;;;;5091416;28;20644;-84
2024/03/18 01:47:20;;;;;;;4.30;3.27;;;;;;;;;;5090935;28;20225;-85
2024/03/18 01:49:47;;;;;;;3.87;3.00;;;;;;;;;;5090816;28;20222;-84
2024/03/18 01:52:16;;;;;;;4.23;3.23;;;;;;;;;;5090951;28;20230;-85
2024/03/18 01:54:44;;;;;;;5.00;3.37;;;;;;;;;;5090894;28;20214;-84
2024/03/18 01:57:11;;;;;;;3.47;3.00;;;;;;;;;;5090820;28;20263;-84
2024/03/18 01:59:38;;;;;;;5.17;4.00;;;;;;;;;;5090821;28;20282;-84
2024/03/18 02:02:05;;;;;;;5.83;4.47;;;;;;;;;;5090499;28;20276;-84
2024/03/18 02:04:33;;;;;;;8.73;5.60;;;;;;;;;;5090340;28;20226;-84
2024/03/18 02:07:00;;;;;;;11.57;6.47;;;;;;;;;;5091149;28;20218;-84
2024/03/18 02:09:30;;;;;;;8.07;6.20;;;;;;;;;;5091022;28;20202;-84
2024/03/18 02:11:57;;;;;;;8.37;6.90;;;;;;;;;;5093072;28;20722;-83
2024/03/18 02:14:25;;;;;;;9.30;7.70;;;;;;;;;;5113893;28;20289;-84
2024/03/18 02:16:52;;;;;;;7.13;6.23;;;;;;;;;;5114664;28;20221;-84
2024/03/18 02:19:19;;;;;;;6.20;5.60;;;;;;;;;;5114619;28;20233;-84
2024/03/18 02:21:46;;;;;;;9.07;6.00;;;;;;;;;;5114751;28;20276;-84
2024/03/18 02:24:16;;;;;;;6.70;5.17;;;;;;;;;;5114703;28;20262;-84
2024/03/18 02:26:43;;;;;;;7.30;5.77;;;;;;;;;;5114579;28;20193;-84
2024/03/18 02:29:10;;;;;;;6.73;5.40;;;;;;;;;;5114828;28;20225;-82
2024/03/18 02:31:37;;;;;;;7.50;5.30;;;;;;;;;;5114347;28;20280;-84
2024/03/18 02:34:04;;;;;;;7.87;5.00;;;;;;;;;;5114271;28;20280;-85
2024/03/18 02:36:34;;;;;;;6.17;4.43;;;;;;;;;;5114214;28;20786;-84
2024/03/18 02:39:01;;;;;;;5.83;4.73;;;;;;;;;;5114075;28;20293;-84
2024/03/18 02:41:29;;;;;;;7.27;5.43;;;;;;;;;;5114034;28;20725;-84
2024/03/18 02:43:57;;;;;;;8.50;5.80;;;;;;;;;;5114572;28;20186;-85
2024/03/18 02:46:24;;;;;;;7.93;5.90;;;;;;;;;;5113574;28;20652;-84
2024/03/18 02:48:51;;;;;;;7.60;5.03;;;;;;;;;;5114012;28;20281;-84
2024/03/18 02:51:18;;;;;;;6.60;4.40;;;;;;;;;;5080326;28;20238;-84
2024/03/18 02:53:45;;;;;;;6.17;3.97;;;;;;;;;;5093375;28;20574;-85
2024/03/18 02:56:13;;;;;;;7.03;4.03;;;;;;;;;;5093722;28;20304;-84
2024/03/18 02:58:41;;;;;;;3.97;3.20;;;;;;;;;;5093424;28;20194;-84
2024/03/18 03:01:09;;;;;;;3.40;2.87;;;;;;;;;;5093082;28;20230;-84
2024/03/18 03:03:37;;;;;;;3.80;2.57;;;;;;;;;;5093658;28;20195;-84
2024/03/18 03:06:04;;;;;;;2.73;2.30;;;;;;;;;;5093342;28;20214;-84
2024/03/18 03:08:30;;;;;;;3.40;2.33;;;;;;;;;;5093097;28;20216;-85
2024/03/18 03:10:58;;;;;;;2.80;2.27;;;;;;;;;;5093433;28;20646;-84
2024/03/18 03:13:25;;;;;;;38.67;5.87;;;;;;;;;;5104298;28;20300;-85
2024/03/18 03:15:54;;;;;;;68.67;7.83;;;;;;;;;;5113335;28;20229;-83
2024/03/18 03:18:21;;;;;;;100.77;8.07;;;;;;;;;;5113592;28;20289;-84
2024/03/18 03:20:48;;;;;;;101.83;7.50;;;;;;;;;;5113336;28;20286;-84
2024/03/18 03:23:15;;;;;;;121.20;9.53;;;;;;;;;;5112001;28;20268;-83
2024/03/18 03:25:43;;;;;;;121.53;8.60;;;;;;;;;;5107230;28;20290;-84
2024/03/18 03:28:10;;;;;;;53.83;6.77;;;;;;;;;;5072700;28;20199;-84
2024/03/18 03:30:38;;;;;;;124.43;8.70;;;;;;;;;;5072017;28;20199;-84
2024/03/18 03:33:06;;;;;;;67.90;8.30;;;;;;;;;;5072971;28;20195;-84
2024/03/18 03:35:33;;;;;;;55.90;8.13;;;;;;;;;;5072449;28;20699;-82
2024/03/18 03:38:01;;;;;;;53.40;8.57;;;;;;;;;;5072519;28;20282;-83
2024/03/18 03:40:28;;;;;;;65.77;8.73;;;;;;;;;;5072559;28;20287;-84
2024/03/18 03:42:55;;;;;;;40.47;9.03;;;;;;;;;;5071965;28;20653;-84
2024/03/18 03:45:24;;;;;;;31.17;8.90;;;;;;;;;;5072322;28;20210;-85
2024/03/18 03:47:52;;;;;;;31.23;10.07;;;;;;;;;;5071928;28;20556;-84
2024/03/18 03:50:21;;;;;;;28.50;9.63;;;;;;;;;;5072219;28;20681;-83
2024/03/18 03:52:48;;;;;;;19.70;8.63;;;;;;;;;;5072249;28;20237;-84
2024/03/18 03:55:16;;;;;;;19.23;8.73;;;;;;;;;;5071712;28;20314;-84
2024/03/18 03:57:43;;;;;;;19.47;9.70;;;;;;;;;;5071492;28;20199;-84
2024/03/18 04:00:11;;;;;;;15.87;9.43;;;;;;;;;;5072062;28;20222;-84
2024/03/18 04:02:38;;;;;;;17.73;9.03;;;;;;;;;;5071772;28;20256;-84
2024/03/18 04:05:06;;;;;;;14.17;8.83;;;;;;;;;;5072159;28;20209;-83
2024/03/18 04:07:35;;;;;;;16.97;9.30;;;;;;;;;;5071933;28;20219;-84
2024/03/18 04:10:02;;;;;;;14.40;8.73;;;;;;;;;;5072026;28;20191;-83
2024/03/18 04:12:29;;;;;;;12.80;7.90;;;;;;;;;;5080315;28;20603;-83
2024/03/18 04:14:57;;;;;;;21.47;8.10;;;;;;;;;;5092252;28;20230;-84
2024/03/18 04:17:25;;;;;;;16.63;8.43;;;;;;;;;;5091743;28;20309;-84
2024/03/18 04:19:54;;;;;;;21.07;8.00;;;;;;;;;;5091682;28;20203;-84
2024/03/18 04:22:21;;;;;;;35.43;8.63;;;;;;;;;;5092132;28;20571;-84
2024/03/18 04:24:50;;;;;;;25.90;8.57;;;;;;;;;;5091899;28;20243;-84
2024/03/18 04:27:18;;;;;;;27.80;8.67;;;;;;;;;;5091587;28;20287;-84
2024/03/18 04:29:45;;;;;;;31.30;8.20;;;;;;;;;;5091944;28;20198;-84
2024/03/18 04:32:12;;;;;;;22.33;8.63;;;;;;;;;;5091483;28;20273;-84
2024/03/18 04:34:39;;;;;;;21.90;8.33;;;;;;;;;;5091676;28;20222;-84
2024/03/18 04:37:08;;;;;;;16.53;8.47;;;;;;;;;;5091379;28;20312;-83
2024/03/18 04:39:35;;;;;;;15.13;7.93;;;;;;;;;;5091950;28;20213;-84
2024/03/18 04:42:05;;;;;;;15.10;7.97;;;;;;;;;;5091091;28;20245;-84
2024/03/18 04:44:33;;;;;;;12.03;7.70;;;;;;;;;;5091694;28;20561;-84
2024/03/18 04:47:00;;;;;;;19.37;8.00;;;;;;;;;;5091476;28;20195;-84
2024/03/18 04:49:27;;;;;;;15.57;7.90;;;;;;;;;;5091497;28;20749;-83
2024/03/18 04:51:54;;;;;;;16.90;8.37;;;;;;;;;;5091856;28;20213;-84
2024/03/18 04:54:21;;;;;;;11.93;8.03;;;;;;;;;;5091111;28;20288;-84
2024/03/18 04:56:49;;;;;;;16.50;8.13;;;;;;;;;;5090804;28;20792;-84
2024/03/18 04:59:17;;;;;;;16.00;7.87;;;;;;;;;;5091569;28;20672;-84
2024/03/18 05:01:44;;;;;;;13.13;7.93;;;;;;;;;;5091369;28;20237;-83
2024/03/18 05:04:12;;;;;;;19.23;8.40;;;;;;;;;;5091267;28;20194;-83
2024/03/18 05:06:39;;;;;;;14.80;7.70;;;;;;;;;;5091136;28;20285;-84
2024/03/18 05:09:09;;;;;;;15.33;7.77;;;;;;;;;;5091125;28;20267;-84
2024/03/18 05:11:36;;;;;;;18.10;8.57;;;;;;;;;;5091042;28;20190;-84
2024/03/18 05:14:04;;;;;;;15.47;8.53;;;;;;;;;;5107924;28;20237;-83
2024/03/18 05:16:37;;;;;;;12.53;7.90;;;;;;;;;;5111105;28;20245;-84
2024/03/18 05:19:05;;;;;;;10.57;7.30;;;;;;;;;;5108610;28;20198;-84
2024/03/18 05:21:32;;;;;;;12.57;7.37;;;;;;;;;;5081872;28;20210;-83
2024/03/18 05:23:59;;;;;;;9.33;7.27;;;;;;;;;;5080265;28;20297;-85
2024/03/18 05:26:27;;;;;;;11.50;7.87;;;;;;;;;;5070502;28;20195;-83
2024/03/18 05:28:54;;;;;;;10.63;7.77;;;;;;;;;;5070793;28;20235;-83
2024/03/18 05:31:21;;;;;;;9.30;6.70;;;;;;;;;;5070701;28;20202;-83
2024/03/18 05:33:50;;;;;;;10.47;7.10;;;;;;;;;;5071059;28;20717;-84
2024/03/18 05:36:17;;;;;;;11.70;7.70;;;;;;;;;;5070858;28;20681;-83
2024/03/18 05:38:44;;;;;;;12.00;7.70;;;;;;;;;;5070681;28;20230;-83
2024/03/18 05:41:11;;;;;;;9.47;6.73;;;;;;;;;;5070458;28;20290;-84
2024/03/18 05:43:38;;;;;;;7.10;5.27;;;;;;;;;;5077606;28;20194;-84
2024/03/18 05:46:06;;;;;;;6.90;4.50;;;;;;;;;;5091631;28;20672;-83
2024/03/18 05:48:33;;;;;;;8.30;4.60;;;;;;;;;;5094627;28;20672;-84
2024/03/18 05:51:01;;;;;;;8.37;4.03;;;;;;;;;;5094823;28;20206;-83
2024/03/18 05:53:29;;;;;;;6.53;3.90;;;;;;;;;;5094670;28;20190;-84
2024/03/18 05:55:56;;;;;;;9.40;4.47;;;;;;;;;;5094680;28;20657;-84
2024/03/18 05:58:23;;;;;;;8.33;4.13;;;;;;;;;;5094581;28;20281;-84
2024/03/18 06:00:51;;;;;;;7.57;4.20;;;;;;;;;;5094804;28;20198;-84
2024/03/18 06:03:19;;;;;;;9.80;4.00;;;;;;;;;;5094249;28;20277;-83
2024/03/18 06:05:46;;;;;;;10.30;3.77;;;;;;;;;;5094578;28;20203;-82
2024/03/18 06:08:14;;;;;;;7.47;3.50;;;;;;;;;;5094083;28;20662;-82
2024/03/18 06:10:41;;;;;;;7.93;3.80;;;;;;;;;;5094251;28;20241;-81
2024/03/18 06:13:09;;;;;;;6.80;4.00;;;;;;;;;;5094076;28;20293;-82
2024/03/18 06:15:36;;;;;;;11.07;3.73;;;;;;;;;;5094174;28;20230;-81
2024/03/18 06:18:03;;;;;;;8.43;3.87;;;;;;;;;;5093943;28;20234;-81
2024/03/18 06:20:30;;;;;;;6.33;3.63;;;;;;;;;;5093948;28;20282;-81
2024/03/18 06:22:57;;;;;;;8.87;3.70;;;;;;;;;;5093761;28;20245;-82
2024/03/18 06:28:11;;;;;;;10.33;4.23;;;;;;;;;;5093856;28;20591;-80
2024/03/18 06:30:38;;;;;;;9.67;4.10;;;;;;;;;;5094283;28;20203;-82
2024/03/18 06:33:05;;;;;;;10.37;4.17;;;;;;;;;;5093916;28;20229;-82
2024/03/18 06:35:32;;;;;;;9.73;3.77;;;;;;;;;;5094046;28;20263;-81
2024/03/18 06:37:59;;;;;;;10.90;3.83;;;;;;;;;;5093585;28;20233;-82
2024/03/18 06:40:28;;;;;;;8.27;4.00;;;;;;;;;;5093711;28;20616;-81
2024/03/18 06:42:55;;;;;;;11.37;3.93;;;;;;;;;;5094012;28;20223;-80
2024/03/18 06:45:24;;;;;;;8.23;3.90;;;;;;;;;;5093609;28;20276;-81
2024/03/18 06:47:51;;;;;;;11.90;3.90;;;;;;;;;;5093239;28;20199;-82
2024/03/18 06:50:18;;;;;;;9.30;3.50;;;;;;;;;;5093593;28;20646;-81
2024/03/18 06:52:45;;;;;;;8.73;3.67;;;;;;;;;;5092917;28;20578;-81
2024/03/18 06:55:13;;;;;;;11.43;4.53;;;;;;;;;;5092970;28;20234;-81
2024/03/18 06:57:41;;;;;;;10.80;4.13;;;;;;;;;;5093494;28;20226;-80
2024/03/18 07:00:09;;;;;;;11.20;4.17;;;;;;;;;;5093869;28;20245;-81
2024/03/18 07:02:36;;;;;;;10.40;3.00;;;;;;;;;;5093226;28;20297;-81
2024/03/18 07:05:04;;;;;;;9.40;2.97;;;;;;;;;;5093852;28;20199;-82
2024/03/18 07:07:31;;;;;;;8.17;3.27;;;;;;;;;;5092966;28;20289;-81
2024/03/18 07:09:58;;;;;;;10.60;3.80;;;;;;;;;;5093378;28;20294;-81
2024/03/18 07:12:26;;;;;;;12.37;3.73;;;;;;;;;;5096004;28;20865;-81
2024/03/18 07:14:54;;;;;;;9.50;3.40;;;;;;;;;;5113755;28;20789;-82
2024/03/18 07:17:22;;;;;;;7.90;3.43;;;;;;;;;;5113319;28;20228;-82
2024/03/18 07:19:49;;;;;;;17.40;3.83;;;;;;;;;;5113687;28;20679;-82
2024/03/18 07:22:16;;;;;;;12.23;4.40;;;;;;;;;;5113089;28;20280;-82
2024/03/18 07:24:43;;;;;;;10.30;4.70;;;;;;;;;;5113633;28;20282;-81
2024/03/18 07:27:11;;;;;;;9.83;4.10;;;;;;;;;;5113495;28;20212;-82
2024/03/18 07:29:38;;;;;;;7.17;3.17;;;;;;;;;;5113711;28;20282;-82
2024/03/18 07:32:08;;;;;;;9.37;3.43;;;;;;;;;;5113533;28;20288;-81
2024/03/18 07:34:36;;;;;;;9.97;3.03;;;;;;;;;;5113244;28;20198;-81
2024/03/18 07:37:04;;;;;;;6.50;3.17;;;;;;;;;;5112978;28;20230;-81
2024/03/18 07:39:31;;;;;;;10.63;3.70;;;;;;;;;;5112941;28;20236;-81
2024/03/18 07:41:59;;;;;;;6.30;2.30;;;;;;;;;;5112951;28;20686;-82
2024/03/18 07:44:26;;;;;;;12.37;3.03;;;;;;;;;;5113718;28;20221;-82
2024/03/18 07:46:53;;;;;;;6.77;3.30;;;;;;;;;;5113091;28;20221;-81
2024/03/18 07:49:22;;;;;;;25.63;3.33;;;;;;;;;;5112749;28;20226;-82
2024/03/18 07:51:49;;;;;;;10.05;3.15;;;;;;;;;;5112801;28;20296;-82
2024/03/18 07:54:16;;;;;;;11.15;2.90;;;;;;;;;;5113029;28;20204;-83
2024/03/18 07:56:43;;;;;;;7.13;2.20;;;;;;;;;;5112610;28;20321;-82
2024/03/18 07:59:11;;;;;;;8.18;2.78;;;;;;;;;;5112856;28;20281;-82
2024/03/18 08:01:38;;;;;;;7.93;2.28;;;;;;;;;;5112771;28;20284;-81
2024/03/18 08:04:05;;;;;;;6.78;2.08;;;;;;;;;;5112256;28;20225;-82
2024/03/18 08:06:34;;;;;;;8.40;2.15;;;;;;;;;;5112697;28;20285;-82
2024/03/18 08:09:01;;;;;;;6.53;2.35;;;;;;;;;;5111802;28;20225;-82
2024/03/18 08:11:28;;;;;;;10.00;2.75;;;;;;;;;;5112542;28;20732;-82
2024/03/18 08:13:55;;;;;;;7.95;2.13;;;;;;;;;;5112328;28;20261;-83
2024/03/18 08:16:23;;;;;;;8.02;2.63;;;;;;;;;;5112475;28;20194;-81
2024/03/18 08:18:50;;;;;;;11.43;2.38;;;;;;;;;;5112103;28;20229;-82
2024/03/18 08:21:18;;;;;;;10.13;3.30;;;;;;;;;;5112375;28;20743;-82
2024/03/18 08:23:49;;;;;;;12.80;3.53;;;;;;;;;;5112221;28;20212;-83
2024/03/18 08:26:16;;;;;;;11.47;4.00;;;;;;;;;;5112362;28;20193;-82
2024/03/18 08:28:43;;;;;;;8.13;3.03;;;;;;;;;;5112575;28;20288;-83
2024/03/18 08:31:11;;;;;;;9.53;3.23;;;;;;;;;;5112317;28;20280;-81
2024/03/18 08:33:38;;;;;;;9.83;3.13;;;;;;;;;;5112011;28;20186;-81
2024/03/18 08:36:06;;;;;;;10.73;2.73;;;;;;;;;;5111950;28;20289;-83
2024/03/18 08:38:33;;;;;;;8.03;2.07;;;;;;;;;;5111705;28;20596;-83
2024/03/18 08:41:01;;;;;;;12.43;2.40;;;;;;;;;;5112311;28;20205;-83
2024/03/18 08:43:28;;;;;;;10.53;2.23;;;;;;;;;;5111986;28;20304;-82
2024/03/18 08:45:55;;;;;;;11.90;2.37;;;;;;;;;;5112263;28;20292;-82
2024/03/18 08:48:23;;;;;;;10.63;2.20;;;;;;;;;;5111848;28;20221;-83
2024/03/18 08:50:50;;;;;;;12.80;2.40;;;;;;;;;;5111955;28;20198;-82
2024/03/18 08:53:18;;;;;;;8.23;2.55;;;;;;;;;;5112305;28;20199;-83
2024/03/18 08:55:46;;;;;;;8.30;2.90;;;;;;;;;;5112134;28;20237;-83
2024/03/18 08:58:15;;;;;;;10.77;2.85;;;;;;;;;;5111606;28;20226;-83
2024/03/18 09:00:42;;;;;;;11.73;2.80;;;;;;;;;;5111675;28;20569;-82
2024/03/18 09:03:10;;;;;;;6.18;2.10;;;;;;;;;;5111530;28;20280;-82
2024/03/18 09:05:37;;;;;;;7.35;2.15;;;;;;;;;;5112172;28;20204;-82
2024/03/18 09:08:05;;;;;;;9.52;2.28;;;;;;;;;;5111852;28;20194;-83
2024/03/18 09:10:32;;;;;;;8.55;2.00;;;;;;;;;;5111564;28;20190;-83
2024/03/18 09:12:59;;;;;;;6.22;1.90;;;;;;;;;;5111604;28;20288;-82
2024/03/18 09:15:28;;;;;;;7.07;1.80;;;;;;;;;;5111714;28;20186;-82
2024/03/18 09:17:56;;;;;;;8.27;2.33;;;;;;;;;;5111002;28;20311;-83
2024/03/18 09:20:23;;;;;;;5.88;1.58;;;;;;;;;;5113667;28;20630;-83
2024/03/18 09:22:50;;;;;;;7.10;1.75;;;;;;;;;;5115831;28;20228;-83
2024/03/18 09:25:17;;;;;;;7.32;2.05;;;;;;;;;;5115718;28;20288;-83
2024/03/18 09:27:44;;;;;;;8.30;1.70;;;;;;;;;;5116001;28;20201;-83
2024/03/18 09:30:12;;;;;;;7.47;1.98;;;;;;;;;;5115852;28;20284;-83
2024/03/18 09:32:40;;;;;;;4.90;1.30;;;;;;;;;;5115564;28;20197;-82
2024/03/18 09:35:08;;;;;;;7.85;1.60;;;;;;;;;;5115505;28;20227;-83
2024/03/18 09:37:35;;;;;;;7.75;1.63;;;;;;;;;;5115713;28;20271;-83
2024/03/18 09:40:02;;;;;;;6.88;1.90;;;;;;;;;;5115455;28;20284;-82
2024/03/18 09:42:30;;;;;;;4.78;1.67;;;;;;;;;;5115577;28;20672;-83
2024/03/18 09:44:57;;;;;;;4.32;1.88;;;;;;;;;;5115263;28;20197;-84
2024/03/18 09:47:25;;;;;;;8.48;2.42;;;;;;;;;;5115411;28;20232;-83
2024/03/18 09:49:55;;;;;;;8.73;2.17;;;;;;;;;;5115539;28;20289;-83
2024/03/18 09:52:23;;;;;;;5.53;1.52;;;;;;;;;;5115675;28;20197;-83
2024/03/18 09:54:51;;;;;;;8.50;2.30;;;;;;;;;;5115173;28;20205;-83
2024/03/18 09:57:24;;;;;;;6.88;2.08;;;;;;;;;;5115305;28;20739;-83
2024/03/18 09:59:51;;;;;;;7.93;1.50;;;;;;;;;;5114804;28;20198;-84
2024/03/18 10:02:18;;;;;;;5.50;1.95;;;;;;;;;;5114751;28;20288;-82
2024/03/18 10:04:46;;;;;;;8.52;1.90;;;;;;;;;;5115001;28;20221;-82
2024/03/18 10:07:15;;;;;;;8.05;1.63;;;;;;;;;;5114848;28;20220;-82
2024/03/18 10:09:43;;;;;;;5.80;1.38;;;;;;;;;;5114962;28;20289;-83
2024/03/18 10:12:13;;;;;;;4.43;1.50;;;;;;;;;;5115027;28;20281;-83
2024/03/18 10:14:40;;;;;;;6.88;1.20;;;;;;;;;;5114263;28;20228;-82
2024/03/18 10:17:13;;;;;;;3.67;1.02;;;;;;;;;;5114133;28;20668;-83
2024/03/18 10:19:41;;;;;;;3.45;1.00;;;;;;;;;;5114210;28;20638;-83
2024/03/18 10:22:11;;;;;;;4.97;1.10;;;;;;;;;;5114952;28;20289;-83
2024/03/18 10:24:41;;;;;;;3.72;1.10;;;;;;;;;;5115041;28;20284;-83
2024/03/18 10:27:11;;;;;;;6.40;0.98;;;;;;;;;;5114421;28;20655;-83
2024/03/18 10:29:40;;;;;;;4.60;0.98;;;;;;;;;;5114139;28;20186;-83
2024/03/18 10:32:13;;;;;;;5.55;0.90;;;;;;;;;;5113944;28;20194;-83
2024/03/18 10:34:42;;;;;;;5.03;0.85;;;;;;;;;;5114493;28;20288;-83
2024/03/18 10:37:13;;;;;;;2.50;0.70;;;;;;;;;;5114317;28;20296;-83
2024/03/18 10:39:44;;;;;;;2.00;0.65;;;;;;;;;;5114833;28;20233;-83
2024/03/18 10:42:16;;;;;;;5.30;1.10;;;;;;;;;;5114285;28;20284;-83
2024/03/18 10:44:45;;;;;;;5.57;0.90;;;;;;;;;;5114014;28;20202;-82
2024/03/18 10:47:13;;;;;;;4.80;1.02;;;;;;;;;;5113962;28;20319;-83
2024/03/18 10:49:41;;;;;;;2.47;0.88;;;;;;;;;;5114567;28;20221;-81
2024/03/18 10:52:09;;;;;;;3.80;0.80;;;;;;;;;;5114059;28;20289;-84
2024/03/18 10:54:36;;;;;;;4.38;0.90;;;;;;;;;;5114186;28;20198;-82
2024/03/18 10:57:06;;;;;;;5.28;1.30;;;;;;;;;;5113993;28;21030;-82
2024/03/18 10:59:34;;;;;;;4.40;1.60;;;;;;;;;;5113848;28;20283;-83
2024/03/18 11:02:03;;;;;;;7.15;1.60;;;;;;;;;;5113998;28;20201;-83
2024/03/18 11:04:31;;;;;;;4.40;1.90;;;;;;;;;;5113770;28;20225;-83
2024/03/18 11:06:58;;;;;;;8.95;1.92;;;;;;;;;;5113813;28;20205;-83
2024/03/18 11:09:26;;;;;;;5.05;1.65;;;;;;;;;;5114062;28;20271;-83
2024/03/18 11:11:53;;;;;;;3.83;1.00;;;;;;;;;;5113789;28;20633;-82
2024/03/18 11:14:27;;;;;;;4.40;1.17;;;;;;;;;;5113413;28;20202;-83
2024/03/18 11:16:55;;;;;;;2.72;0.80;;;;;;;;;;5113548;28;20201;-84
2024/03/18 11:19:24;;;;;;;3.95;1.60;;;;;;;;;;5113666;28;20315;-82
2024/03/18 11:21:58;;;;;;;7.30;2.30;;;;;;;;;;5113883;28;20251;-82
2024/03/18 11:24:25;;;;;;;4.78;1.40;;;;;;;;;;5113327;28;20227;-82
2024/03/18 11:26:55;;;;;;;4.07;1.42;;;;;;;;;;5113183;28;20284;-82
2024/03/18 11:29:22;;;;;;;4.63;1.15;;;;;;;;;;5113857;28;20258;-83
2024/03/18 11:31:52;;;;;;;5.65;1.17;;;;;;;;;;5113119;28;20719;-82
2024/03/18 11:34:23;;;;;;;4.40;1.48;;;;;;;;;;5113415;28;20197;-83
2024/03/18 11:36:50;;;;;;;3.97;1.17;;;;;;;;;;5113463;28;20277;-83
2024/03/18 11:39:19;;;;;;;4.18;1.30;;;;;;;;;;5112980;28;20320;-83
2024/03/18 11:41:46;;;;;;;6.10;1.60;;;;;;;;;;5112976;28;20193;-83
2024/03/18 11:44:13;;;;;;;2.30;1.10;;;;;;;;;;5112450;28;20222;-82
2024/03/18 11:46:42;;;;;;;2.63;1.10;;;;;;;;;;5113381;28;20536;-82
2024/03/18 11:49:11;;;;;;;2.45;0.85;;;;;;;;;;5112941;28;20692;-83
2024/03/18 11:51:38;;;;;;;2.17;0.90;;;;;;;;;;5113050;28;20197;-83
2024/03/18 11:54:08;;;;;;;1.70;0.60;;;;;;;;;;5113011;28;20616;-82
2024/03/18 11:56:37;;;;;;;2.90;0.55;;;;;;;;;;5112603;28;20229;-82
2024/03/18 11:59:04;;;;;;;1.80;0.60;;;;;;;;;;5112725;28;20229;-83
2024/03/18 12:01:33;;;;;;;3.38;0.75;;;;;;;;;;5113072;28;20208;-82
2024/03/18 12:04:00;;;;;;;2.30;0.57;;;;;;;;;;5112641;28;20243;-84
2024/03/18 12:06:35;;;;;;;2.15;0.70;;;;;;;;;;5112600;28;20243;-83
2024/03/18 12:09:04;;;;;;;3.00;0.63;;;;;;;;;;5112643;28;20204;-82
2024/03/18 12:11:31;;;;;;;0.75;0.50;;;;;;;;;;5112210;28;20243;-82
2024/03/18 12:13:59;;;;;;;1.70;0.70;;;;;;;;;;5112761;28;20715;-82
2024/03/18 12:16:27;;;;;;;2.20;0.68;;;;;;;;;;5112543;28;20281;-83
2024/03/18 12:18:54;;;;;;;1.10;0.47;;;;;;;;;;5112452;28;20304;-83
2024/03/18 12:21:21;;;;;;;1.80;0.75;;;;;;;;;;5112268;28;20670;-82
2024/03/18 12:29:22;;;;;;;2.30;0.95;;;;;;;;;;5112232;28;20581;-83
2024/03/18 12:31:52;;;;;;;1.77;0.80;;;;;;;;;;5112390;28;20281;-82
2024/03/18 12:34:19;;;;;;;3.33;0.60;;;;;;;;;;5097785;28;20191;-83
2024/03/18 12:36:47;;;;;;;1.27;0.57;;;;;;;;;;5071768;28;20237;-83
2024/03/18 12:39:18;;;;;;;1.80;0.50;;;;;;;;;;5071313;28;20238;-82
2024/03/18 12:41:46;;;;;;;1.30;0.30;;;;;;;;;;5071523;28;20191;-83
2024/03/18 12:44:14;;;;;;;1.60;0.50;;;;;;;;;;5071218;28;20290;-83
2024/03/18 12:46:41;;;;;;;1.23;0.40;;;;;;;;;;5071433;28;20201;-83
2024/03/18 12:49:08;;;;;;;1.38;0.50;;;;;;;;;;5071416;28;20642;-82
2024/03/18 12:51:36;;;;;;;2.13;0.65;;;;;;;;;;5071282;28;20199;-83
2024/03/18 12:54:07;;;;;;;2.65;0.70;;;;;;;;;;5053547;28;20286;-83
2024/03/18 12:56:36;;;;;;;2.65;0.75;;;;;;;;;;5071031;28;20238;-83
2024/03/18 12:59:04;;;;;;;2.05;0.90;;;;;;;;;;5071837;28;20289;-83
2024/03/18 13:01:32;;;;;;;3.28;1.02;;;;;;;;;;5071495;28;20199;-83
2024/03/18 13:03:59;;;;;;;4.50;1.38;;;;;;;;;;5071428;28;20295;-83
2024/03/18 13:06:26;;;;;;;2.10;0.80;;;;;;;;;;5071160;28;20206;-82
2024/03/18 13:08:55;;;;;;;2.72;1.25;;;;;;;;;;5071132;28;20279;-81
2024/03/18 13:11:23;;;;;;;2.70;1.13;;;;;;;;;;5071292;28;20199;-83
2024/03/18 13:13:52;;;;;;;5.20;1.13;;;;;;;;;;5085173;28;20318;-83
2024/03/18 13:16:19;;;;;;;4.32;0.93;;;;;;;;;;5091270;28;20233;-82
2024/03/18 13:18:46;;;;;;;3.83;1.20;;;;;;;;;;5091553;28;20694;-82
2024/03/18 13:21:14;;;;;;;7.15;1.35;;;;;;;;;;5091553;28;20610;-83
2024/03/18 13:23:41;;;;;;;5.45;1.50;;;;;;;;;;5091014;28;20651;-82
2024/03/18 13:26:10;;;;;;;5.72;1.45;;;;;;;;;;5091536;28;20285;-83
2024/03/18 13:28:37;;;;;;;3.42;1.15;;;;;;;;;;5091492;28;20248;-83
2024/03/18 13:31:07;;;;;;;3.72;0.93;;;;;;;;;;5091158;28;20290;-82
2024/03/18 13:33:34;;;;;;;4.07;1.10;;;;;;;;;;5091474;28;20199;-83
2024/03/18 13:36:02;;;;;;;4.22;1.70;;;;;;;;;;5091279;28;20767;-83
2024/03/18 13:38:30;;;;;;;3.30;1.15;;;;;;;;;;5090934;28;20259;-83
2024/03/18 13:40:58;;;;;;;2.30;1.13;;;;;;;;;;5091648;28;20282;-83
2024/03/18 13:43:25;;;;;;;4.68;2.03;;;;;;;;;;5091287;28;20198;-83
2024/03/18 13:45:53;;;;;;;4.28;2.20;;;;;;;;;;5090867;28;20248;-83
2024/03/18 13:48:22;;;;;;;6.25;1.63;;;;;;;;;;5091183;28;20281;-82
2024/03/18 13:50:49;;;;;;;4.65;1.17;;;;;;;;;;5090990;28;20285;-83
2024/03/18 13:53:17;;;;;;;5.18;1.40;;;;;;;;;;5090644;28;20654;-83
2024/03/18 13:55:45;;;;;;;4.45;1.17;;;;;;;;;;5091070;28;20280;-83
2024/03/18 13:58:14;;;;;;;4.85;1.98;;;;;;;;;;5091128;28;20205;-83
2024/03/18 14:00:41;;;;;;;6.30;1.83;;;;;;;;;;5091054;28;20328;-83
2024/03/18 14:03:08;;;;;;;6.82;1.70;;;;;;;;;;5091154;28;20274;-82
2024/03/18 14:05:37;;;;;;;5.35;1.30;;;;;;;;;;5091436;28;20198;-83
2024/03/18 14:08:06;;;;;;;4.97;1.50;;;;;;;;;;5093244;28;20614;-82
2024/03/18 14:10:33;;;;;;;4.70;1.40;;;;;;;;;;5094607;28;20723;-82
2024/03/18 14:13:00;;;;;;;4.82;1.40;;;;;;;;;;5102063;28;20614;-82
2024/03/18 14:15:27;;;;;;;4.60;1.00;;;;;;;;;;5115097;28;20198;-82
2024/03/18 14:17:55;;;;;;;4.95;1.02;;;;;;;;;;5114743;28;20220;-82
2024/03/18 14:20:22;;;;;;;3.85;1.17;;;;;;;;;;5114773;28;20652;-81
2024/03/18 14:22:50;;;;;;;3.42;1.30;;;;;;;;;;5114862;28;20289;-83
2024/03/18 14:25:21;;;;;;;3.42;1.23;;;;;;;;;;5114730;28;20273;-83
2024/03/18 14:27:54;;;;;;;4.43;1.20;;;;;;;;;;5114509;28;20197;-83
2024/03/18 14:30:23;;;;;;;4.88;1.60;;;;;;;;;;5115275;28;20194;-82
2024/03/18 14:32:50;;;;;;;7.32;1.70;;;;;;;;;;5114636;28;20212;-83
2024/03/18 14:35:17;;;;;;;5.05;1.50;;;;;;;;;;5114577;28;20273;-82
2024/03/18 14:37:44;;;;;;;4.10;1.98;;;;;;;;;;5114608;28;20236;-82
2024/03/18 14:40:14;;;;;;;5.88;2.00;;;;;;;;;;5114093;28;20320;-82
2024/03/18 14:42:44;;;;;;;7.13;2.15;;;;;;;;;;5114288;28;20676;-81
2024/03/18 14:45:16;;;;;;;6.50;2.38;;;;;;;;;;5114260;28;20194;-81
2024/03/18 14:47:43;;;;;;;6.43;2.42;;;;;;;;;;5114495;28;20568;-81
2024/03/18 14:50:11;;;;;;;7.07;2.33;;;;;;;;;;5114390;28;20757;-80